Terminal Aerodrome Forecast
Issued by NWS Portland, ME

Home | Current Version | Previous Version | Text Only | Print | Product List | Glossary On
Versions: 1 2 3 4 5 6 7 8 9 10 11 12 13 14 15 16 17 18 19 20 21 22 23 24 25 26
000
FTUS41 KGYX 240520
TAFPWM
TAF
KPWM 240520Z 2406/2506 01013G20KT 3SM -SHRA SCT009 BKN015 OVC035
     FM241300 34013G20KT P6SM -SHRA BKN025 OVC040
     FM241800 33013G20KT P6SM VCSH SCT025 BKN035 OVC050=

USA.gov is the U.S. government's official web portal to all federal, state and local government web resources and services.